createdAt,value
2018-09-30T00:01:34.315Z,62.61
2018-09-30T00:04:00.630Z,62.56
2018-09-30T00:06:26.950Z,62.75
2018-09-30T00:08:53.265Z,62.96
2018-09-30T00:11:19.582Z,63.19
2018-09-30T00:13:45.897Z,63.30
2018-09-30T00:16:12.213Z,63.41
2018-09-30T00:18:38.527Z,63.69
2018-09-30T00:21:04.842Z,63.72
2018-09-30T00:23:31.162Z,64.26
2018-09-30T00:25:57.473Z,64.41
2018-09-30T00:28:23.793Z,64.42
2018-09-30T00:30:50.120Z,64.39
2018-09-30T00:33:16.431Z,64.49
2018-09-30T00:35:42.753Z,64.47
2018-09-30T00:38:09.068Z,64.51
2018-09-30T00:40:35.392Z,65.11
2018-09-30T00:43:01.712Z,65.10
2018-09-30T00:45:28.025Z,65.23
2018-09-30T00:47:54.362Z,65.76
2018-09-30T00:50:20.673Z,66.24
2018-09-30T00:52:46.990Z,65.50
2018-09-30T00:55:13.305Z,66.06
2018-09-30T00:57:39.623Z,66.45
2018-09-30T01:00:05.941Z,66.42
2018-09-30T01:02:32.438Z,66.34
2018-09-30T01:04:58.758Z,65.94
2018-09-30T01:07:25.074Z,66.46
2018-09-30T01:09:51.393Z,66.66
2018-09-30T01:12:17.711Z,66.69
2018-09-30T01:14:44.030Z,67.07
2018-09-30T01:17:10.387Z,66.96
2018-09-30T01:19:36.703Z,67.17
2018-09-30T01:22:03.019Z,67.04
2018-09-30T01:24:29.329Z,67.19
2018-09-30T01:26:55.685Z,67.04
2018-09-30T01:29:22.004Z,67.14
2018-09-30T01:31:48.317Z,67.36
2018-09-30T01:34:14.638Z,67.66
2018-09-30T01:36:40.951Z,68.05
2018-09-30T01:39:07.303Z,68.04
2018-09-30T01:41:33.622Z,68.17
2018-09-30T01:43:59.942Z,67.86
2018-09-30T01:46:26.261Z,68.87
2018-09-30T01:48:52.579Z,69.24
2018-09-30T01:51:18.893Z,69.82
2018-09-30T01:53:45.209Z,69.13
2018-09-30T01:56:11.531Z,69.33
2018-09-30T01:58:37.845Z,69.96
2018-09-30T02:01:04.161Z,70.26
2018-09-30T02:03:30.478Z,70.24
2018-09-30T02:05:56.837Z,71.25
2018-09-30T02:08:23.153Z,71.27
2018-09-30T02:10:49.513Z,71.27
2018-09-30T02:13:15.833Z,71.64
2018-09-30T02:15:42.153Z,71.69
2018-09-30T02:18:08.461Z,71.93
2018-09-30T02:20:34.782Z,71.77
2018-09-30T02:23:01.093Z,72.01
2018-09-30T02:25:27.419Z,72.25
2018-09-30T02:27:53.737Z,72.09
2018-09-30T02:30:20.059Z,72.69
2018-09-30T02:32:46.373Z,72.82
2018-09-30T02:35:12.695Z,72.93
2018-09-30T02:37:39.010Z,72.84
2018-09-30T02:40:05.330Z,73.43
2018-09-30T02:42:31.649Z,73.32
2018-09-30T02:44:57.959Z,73.43
2018-09-30T02:47:24.274Z,73.37
2018-09-30T02:49:50.586Z,73.46
2018-09-30T02:52:16.906Z,73.67
2018-09-30T02:54:43.221Z,73.63
2018-09-30T02:57:09.543Z,73.43
2018-09-30T02:59:35.859Z,73.58
2018-09-30T03:02:02.169Z,73.89
2018-09-30T03:04:28.491Z,74.27
2018-09-30T03:06:54.807Z,74.03
2018-09-30T03:09:21.141Z,74.08
2018-09-30T03:11:47.457Z,73.91
2018-09-30T03:14:13.775Z,73.72
2018-09-30T03:16:40.093Z,73.59
2018-09-30T03:19:06.455Z,73.70
2018-09-30T03:21:32.766Z,73.63
2018-09-30T03:23:59.085Z,73.50
2018-09-30T03:26:25.406Z,73.69
2018-09-30T03:28:51.727Z,73.68
2018-09-30T03:31:18.041Z,73.42
2018-09-30T03:33:45.375Z,73.53
2018-09-30T03:36:10.714Z,73.35
2018-09-30T03:38:37.032Z,73.71
2018-09-30T03:41:03.356Z,73.72
2018-09-30T03:43:29.676Z,73.81
2018-09-30T03:45:55.985Z,73.86
2018-09-30T03:48:22.332Z,73.67
2018-09-30T03:50:48.687Z,74.03
2018-09-30T03:53:14.997Z,73.45
2018-09-30T03:55:41.350Z,73.66
2018-09-30T03:58:07.669Z,74.03
2018-09-30T04:00:33.987Z,74.25
2018-09-30T04:03:00.302Z,74.20
2018-09-30T04:05:26.622Z,74.01
2018-09-30T04:07:52.936Z,73.79
2018-09-30T04:10:19.250Z,73.87
2018-09-30T04:12:45.569Z,74.39
2018-09-30T04:15:11.882Z,74.36
2018-09-30T04:17:38.199Z,74.38
2018-09-30T04:20:04.518Z,74.60
2018-09-30T04:22:30.835Z,74.50
2018-09-30T04:24:57.157Z,74.46
2018-09-30T04:27:23.472Z,74.34
2018-09-30T04:29:49.785Z,74.55
2018-09-30T04:32:16.098Z,74.46
2018-09-30T04:34:42.415Z,74.43
2018-09-30T04:37:08.763Z,74.59
2018-09-30T04:39:35.049Z,74.54
2018-09-30T04:42:01.362Z,74.53
2018-09-30T04:44:27.682Z,74.59
2018-09-30T04:46:53.991Z,74.21
2018-09-30T04:49:20.306Z,74.41
2018-09-30T04:51:46.621Z,74.42
2018-09-30T04:54:12.939Z,73.64
2018-09-30T04:56:39.253Z,73.59
2018-09-30T04:59:05.576Z,73.49
2018-09-30T05:01:31.885Z,72.81
2018-09-30T05:03:58.206Z,72.51
2018-09-30T05:06:24.524Z,72.96
2018-09-30T05:08:50.844Z,73.30
2018-09-30T05:11:17.163Z,73.46
2018-09-30T05:13:43.481Z,73.49
2018-09-30T05:16:09.846Z,73.76
2018-09-30T05:18:36.154Z,73.98
2018-09-30T05:21:02.473Z,74.42
2018-09-30T05:23:28.785Z,74.54
2018-09-30T05:25:55.100Z,73.95
2018-09-30T05:28:21.463Z,73.85
2018-09-30T05:30:47.777Z,74.44
2018-09-30T05:33:14.095Z,74.20
2018-09-30T05:35:40.418Z,73.16
2018-09-30T05:38:06.829Z,72.39
2018-09-30T05:40:33.104Z,71.40
2018-09-30T05:42:59.462Z,70.48
2018-09-30T05:45:25.779Z,69.56
2018-09-30T05:47:52.113Z,68.64
2018-09-30T05:50:18.449Z,67.46
2018-09-30T05:52:44.811Z,67.05
2018-09-30T05:55:11.122Z,65.72
2018-09-30T05:57:37.447Z,65.09
2018-09-30T06:00:03.800Z,64.58
2018-09-30T06:02:30.116Z,64.42
2018-09-30T06:04:56.437Z,63.97
2018-09-30T06:07:22.754Z,62.92
2018-09-30T06:09:49.073Z,62.36
2018-09-30T06:12:15.464Z,61.56
2018-09-30T06:14:41.786Z,61.54
2018-09-30T06:17:08.098Z,61.53
2018-09-30T06:19:34.420Z,62.39
2018-09-30T06:22:00.737Z,64.07
2018-09-30T06:24:27.056Z,64.26
2018-09-30T06:26:53.365Z,63.45
2018-09-30T06:29:19.691Z,61.84
2018-09-30T06:31:46.253Z,61.20
2018-09-30T06:34:12.502Z,60.85
2018-09-30T06:36:38.818Z,63.55
2018-09-30T06:39:05.134Z,61.70
2018-09-30T06:41:31.449Z,59.71
2018-09-30T06:43:57.766Z,58.71
2018-09-30T06:46:24.084Z,57.84
2018-09-30T06:48:50.402Z,58.10
2018-09-30T06:51:16.726Z,58.84
2018-09-30T06:53:43.051Z,59.73
2018-09-30T06:56:09.365Z,61.92
2018-09-30T06:58:35.700Z,63.33
2018-09-30T07:01:02.017Z,64.06
2018-09-30T07:03:28.336Z,64.21
2018-09-30T07:05:54.647Z,63.95
2018-09-30T07:08:20.994Z,64.18
2018-09-30T07:10:47.347Z,64.04
2018-09-30T07:13:13.638Z,63.27
2018-09-30T07:15:40.054Z,62.81
2018-09-30T07:18:06.369Z,63.13
2018-09-30T07:20:32.686Z,63.13
2018-09-30T07:22:59.013Z,62.32
2018-09-30T07:25:25.328Z,61.53
2018-09-30T07:27:51.650Z,60.98
2018-09-30T07:30:17.963Z,60.61
2018-09-30T07:32:44.297Z,61.14
2018-09-30T07:35:10.624Z,61.46
2018-09-30T07:37:36.937Z,59.88
2018-09-30T07:40:03.265Z,59.82
2018-09-30T07:42:29.585Z,60.51
2018-09-30T07:44:55.905Z,61.23
2018-09-30T07:47:22.224Z,61.03
2018-09-30T07:49:48.539Z,60.62
2018-09-30T07:52:14.854Z,60.37
2018-09-30T07:54:41.173Z,60.45
2018-09-30T07:57:07.492Z,59.72
2018-09-30T07:59:33.807Z,59.74
2018-09-30T08:02:00.127Z,59.90
2018-09-30T08:04:26.441Z,59.39
2018-09-30T08:06:52.764Z,58.93
2018-09-30T08:09:19.091Z,58.59
2018-09-30T08:11:45.405Z,59.24
2018-09-30T08:14:11.713Z,59.52
2018-09-30T08:16:38.091Z,58.78
2018-09-30T08:19:04.390Z,58.98
2018-09-30T08:21:31.044Z,58.36
2018-09-30T08:23:57.376Z,56.97
2018-09-30T08:26:23.683Z,55.34
2018-09-30T08:28:50.005Z,53.47
2018-09-30T08:31:16.326Z,53.67
2018-09-30T08:33:42.663Z,54.45
2018-09-30T08:36:08.989Z,53.76
2018-09-30T08:38:35.352Z,52.86
2018-09-30T08:41:01.707Z,53.71
2018-09-30T08:43:28.026Z,53.47
2018-09-30T08:45:54.353Z,53.47
2018-09-30T08:48:20.654Z,54.26
2018-09-30T08:50:46.975Z,54.79
2018-09-30T08:53:13.295Z,53.91
2018-09-30T08:55:39.628Z,53.87
2018-09-30T08:58:05.939Z,55.13
2018-09-30T09:00:32.258Z,55.31
2018-09-30T09:02:58.589Z,53.94
2018-09-30T09:05:24.900Z,54.00
2018-09-30T09:07:51.223Z,53.44
2018-09-30T09:10:17.543Z,53.61
2018-09-30T09:12:43.860Z,54.10
2018-09-30T09:15:10.178Z,54.01
2018-09-30T09:17:36.499Z,54.00
2018-09-30T09:20:02.824Z,53.85
2018-09-30T09:22:29.178Z,54.69
2018-09-30T09:24:55.462Z,54.69
2018-09-30T09:27:21.781Z,54.93
2018-09-30T09:29:48.104Z,54.64
2018-09-30T09:32:14.422Z,53.34
2018-09-30T09:34:40.741Z,51.40
2018-09-30T09:37:07.072Z,50.32
2018-09-30T09:39:33.385Z,49.88
2018-09-30T09:41:59.705Z,49.49
2018-09-30T09:44:26.033Z,49.32
2018-09-30T09:46:52.395Z,49.79
2018-09-30T09:49:18.674Z,49.92
2018-09-30T09:51:44.998Z,49.90
2018-09-30T09:54:11.324Z,50.31
2018-09-30T09:56:37.648Z,49.96
2018-09-30T09:59:03.988Z,49.89
2018-09-30T10:01:30.281Z,50.51
2018-09-30T10:03:56.603Z,50.69
2018-09-30T10:06:22.985Z,51.46
2018-09-30T10:08:49.314Z,51.81
2018-09-30T10:11:15.630Z,51.85
2018-09-30T10:13:41.955Z,52.74
2018-09-30T10:16:08.283Z,52.98
2018-09-30T10:18:34.594Z,52.78
2018-09-30T10:21:00.917Z,52.85
2018-09-30T10:23:27.243Z,53.08
2018-09-30T10:25:53.567Z,52.76
2018-09-30T10:28:19.882Z,53.58
2018-09-30T10:30:46.208Z,53.83
2018-09-30T10:33:12.524Z,54.34
2018-09-30T10:35:38.849Z,54.72
2018-09-30T10:38:05.171Z,54.47
2018-09-30T10:40:31.544Z,54.34
2018-09-30T10:42:57.860Z,54.54
2018-09-30T10:45:24.187Z,55.05
2018-09-30T10:47:50.506Z,55.64
2018-09-30T10:50:16.828Z,55.66
2018-09-30T10:52:43.153Z,55.71
2018-09-30T10:55:09.507Z,55.82
2018-09-30T10:57:35.803Z,56.12
2018-09-30T11:00:02.116Z,56.88
2018-09-30T11:02:28.440Z,57.04
2018-09-30T11:04:54.759Z,56.36
2018-09-30T11:07:21.074Z,57.11
2018-09-30T11:09:47.473Z,56.81
2018-09-30T11:12:13.714Z,57.23
2018-09-30T11:14:40.042Z,58.67
2018-09-30T11:17:06.361Z,59.16
2018-09-30T11:19:32.682Z,58.78
2018-09-30T11:21:58.998Z,59.13
2018-09-30T11:24:25.425Z,58.93
2018-09-30T11:26:51.946Z,59.11
2018-09-30T11:29:18.355Z,58.71
2018-09-30T11:31:44.716Z,59.03
2018-09-30T11:34:11.085Z,59.05
2018-09-30T11:36:37.593Z,59.51
2018-09-30T11:39:04.110Z,59.51
2018-09-30T11:41:30.433Z,60.03
2018-09-30T11:43:56.977Z,60.19
2018-09-30T11:46:23.295Z,59.70
2018-09-30T11:48:49.660Z,60.33
2018-09-30T11:51:15.981Z,60.93
2018-09-30T11:53:42.335Z,60.77
2018-09-30T11:56:08.655Z,60.55
2018-09-30T11:58:34.979Z,60.71
2018-09-30T12:01:01.331Z,60.94
2018-09-30T12:03:27.631Z,61.05
2018-09-30T12:05:53.996Z,61.24
2018-09-30T12:08:20.315Z,61.48
2018-09-30T12:10:46.676Z,61.26
2018-09-30T12:13:12.996Z,60.91
2018-09-30T12:15:39.321Z,60.42
2018-09-30T12:18:05.644Z,60.49
2018-09-30T12:20:31.961Z,60.32
2018-09-30T12:22:58.284Z,60.02
2018-09-30T12:25:24.604Z,60.09
2018-09-30T12:27:50.928Z,60.36
2018-09-30T12:30:17.247Z,60.80
2018-09-30T12:32:43.567Z,60.55
2018-09-30T12:35:09.884Z,60.21
2018-09-30T12:37:36.203Z,60.10
2018-09-30T12:40:02.525Z,59.92
2018-09-30T12:42:28.837Z,59.30
2018-09-30T12:44:55.163Z,58.93
2018-09-30T12:47:21.488Z,58.76
2018-09-30T12:49:47.811Z,58.58
2018-09-30T12:52:14.128Z,58.88
2018-09-30T12:54:40.453Z,58.82
2018-09-30T12:57:06.784Z,58.63
2018-09-30T12:59:33.103Z,58.55
2018-09-30T13:01:59.421Z,58.96
2018-09-30T13:04:25.750Z,59.54
2018-09-30T13:06:52.068Z,59.78
2018-09-30T13:09:18.387Z,60.06
2018-09-30T13:11:44.708Z,60.09
2018-09-30T13:14:11.027Z,60.61
2018-09-30T13:16:37.353Z,60.52
2018-09-30T13:19:03.673Z,60.35
2018-09-30T13:21:30.007Z,60.44
2018-09-30T13:23:56.331Z,60.41
2018-09-30T13:26:22.684Z,59.72
2018-09-30T13:28:48.999Z,59.35
2018-09-30T13:31:15.323Z,59.17
2018-09-30T13:33:41.639Z,59.17
2018-09-30T13:36:07.958Z,59.40
2018-09-30T13:38:34.275Z,59.75
2018-09-30T13:41:00.696Z,59.96
2018-09-30T13:43:26.916Z,59.78
2018-09-30T13:45:53.260Z,59.66
2018-09-30T13:48:19.647Z,60.00
2018-09-30T13:50:45.984Z,60.05
2018-09-30T13:53:12.308Z,61.25
2018-09-30T13:55:38.694Z,61.58
2018-09-30T13:58:05.024Z,61.92
2018-09-30T14:00:31.352Z,62.32
2018-09-30T14:02:57.668Z,62.44
2018-09-30T14:05:24.027Z,62.85
2018-09-30T14:07:50.347Z,63.39
2018-09-30T14:10:16.668Z,63.51
2018-09-30T14:12:42.981Z,63.91
2018-09-30T14:15:09.313Z,64.35
2018-09-30T14:17:35.640Z,64.65
2018-09-30T14:20:01.959Z,64.90
2018-09-30T14:22:28.283Z,65.14
2018-09-30T14:24:54.619Z,65.28
2018-09-30T14:30:08.916Z,65.83
2018-09-30T14:32:43.055Z,65.99
2018-09-30T14:38:06.828Z,67.32
2018-09-30T14:40:33.164Z,67.03
2018-09-30T14:42:59.483Z,67.38
2018-09-30T14:45:25.810Z,66.94
2018-09-30T14:47:52.126Z,66.73
2018-09-30T14:50:18.446Z,66.51
2018-09-30T14:52:44.812Z,67.19
2018-09-30T14:55:11.122Z,67.46
2018-09-30T14:57:37.444Z,68.18
2018-09-30T15:00:03.996Z,68.76
2018-09-30T15:02:30.318Z,69.08
2018-09-30T15:04:56.730Z,69.61
2018-09-30T15:07:23.134Z,69.70
2018-09-30T15:09:49.384Z,69.69
2018-09-30T15:12:15.710Z,70.45
2018-09-30T15:14:42.037Z,70.86
2018-09-30T15:17:08.376Z,71.34
2018-09-30T15:19:34.702Z,71.95
2018-09-30T15:22:01.027Z,72.04
2018-09-30T15:24:27.346Z,72.57
2018-09-30T15:26:53.672Z,73.56
2018-09-30T15:29:19.995Z,74.55
2018-09-30T15:31:46.316Z,75.34
2018-09-30T15:34:12.633Z,75.67
2018-09-30T15:36:38.954Z,75.62
2018-09-30T15:39:05.271Z,76.08
2018-09-30T15:41:31.594Z,75.90
2018-09-30T15:43:57.914Z,76.34
2018-09-30T15:46:24.238Z,76.88
2018-09-30T15:48:50.567Z,78.10
2018-09-30T15:51:16.925Z,79.24
2018-09-30T15:53:43.252Z,79.61
2018-09-30T15:56:09.608Z,80.57
2018-09-30T15:58:35.942Z,80.83
2018-09-30T16:01:02.296Z,81.70
2018-09-30T16:03:28.623Z,81.99
2018-09-30T16:05:54.943Z,82.04
2018-09-30T16:08:21.271Z,81.88
2018-09-30T16:10:47.591Z,82.28
2018-09-30T16:13:13.992Z,82.70
2018-09-30T16:15:40.256Z,83.15
2018-09-30T16:18:06.582Z,83.19
2018-09-30T16:20:32.925Z,83.28
2018-09-30T16:22:59.242Z,82.97
2018-09-30T16:25:25.584Z,82.78
2018-09-30T16:27:51.926Z,83.24
2018-09-30T16:30:18.244Z,84.03
2018-09-30T16:32:44.653Z,84.16
2018-09-30T16:35:11.103Z,84.21
2018-09-30T16:37:37.428Z,84.80
2018-09-30T16:40:03.771Z,84.99
2018-09-30T16:42:30.175Z,85.69
2018-09-30T16:44:56.618Z,85.67
2018-09-30T16:47:23.052Z,86.14
2018-09-30T16:49:49.385Z,86.53
2018-09-30T16:52:15.740Z,86.25
2018-09-30T16:54:42.255Z,85.72
2018-09-30T16:57:08.596Z,85.26
2018-09-30T16:59:34.935Z,85.17
2018-09-30T17:02:01.281Z,85.15
2018-09-30T17:04:27.603Z,85.16
2018-09-30T17:06:54.118Z,85.23
2018-09-30T17:09:20.452Z,85.22
2018-09-30T17:11:46.827Z,85.37
2018-09-30T17:14:13.490Z,84.93
2018-09-30T17:16:39.816Z,84.23
2018-09-30T17:19:06.134Z,84.38
2018-09-30T17:21:32.456Z,84.49
2018-09-30T17:23:58.785Z,84.85
2018-09-30T17:26:25.161Z,84.78
2018-09-30T17:28:51.593Z,85.17
2018-09-30T17:31:17.950Z,84.80
2018-09-30T17:33:44.315Z,84.71
2018-09-30T17:36:10.681Z,84.62
2018-09-30T17:38:37.000Z,84.67
2018-09-30T17:41:03.360Z,84.29
2018-09-30T17:43:29.687Z,84.27
2018-09-30T17:45:56.060Z,84.05
2018-09-30T17:48:22.384Z,83.85
2018-09-30T17:50:48.702Z,83.52
2018-09-30T17:53:15.028Z,83.50
2018-09-30T17:55:41.353Z,83.59
2018-09-30T17:58:07.689Z,83.45
2018-09-30T18:00:35.694Z,83.19
2018-09-30T18:03:02.409Z,83.31
2018-09-30T18:05:28.727Z,83.24
2018-09-30T18:07:55.487Z,82.83
2018-09-30T18:10:22.019Z,82.61
2018-09-30T18:12:48.548Z,82.40
2018-09-30T18:15:15.084Z,82.51
2018-09-30T18:17:41.495Z,82.53
2018-09-30T18:20:08.162Z,82.37
2018-09-30T18:22:34.696Z,82.97
2018-09-30T18:25:01.567Z,82.72
2018-09-30T18:27:28.238Z,82.87
2018-09-30T18:29:55.047Z,82.84
2018-09-30T18:32:21.705Z,82.65
2018-09-30T18:34:48.424Z,82.67
2018-09-30T18:37:15.063Z,82.72
2018-09-30T18:39:41.576Z,82.65
2018-09-30T18:42:08.107Z,82.68
2018-09-30T18:44:34.874Z,82.51
2018-09-30T18:47:01.319Z,82.96
2018-09-30T18:49:27.785Z,83.16
2018-09-30T18:51:54.228Z,83.46
2018-09-30T18:54:20.602Z,83.69
2018-09-30T18:56:46.924Z,83.58
2018-09-30T18:59:13.248Z,83.52
2018-09-30T19:01:39.622Z,83.80
2018-09-30T19:04:05.976Z,83.77
2018-09-30T19:06:32.306Z,84.01
2018-09-30T19:08:58.630Z,84.01
2018-09-30T19:11:24.956Z,84.20
2018-09-30T19:13:51.321Z,84.36
2018-09-30T19:16:17.780Z,84.81
2018-09-30T19:18:44.000Z,84.94
2018-09-30T19:21:10.318Z,85.03
2018-09-30T19:23:36.735Z,84.82
2018-09-30T19:26:03.064Z,85.35
2018-09-30T19:28:29.859Z,85.72
2018-09-30T19:30:56.221Z,85.70
2018-09-30T19:33:23.958Z,85.80
2018-09-30T19:35:48.889Z,85.81
2018-09-30T19:38:15.232Z,85.54
2018-09-30T19:40:41.565Z,85.40
2018-09-30T19:43:07.986Z,85.33
2018-09-30T19:45:34.308Z,84.99
2018-09-30T19:48:00.628Z,84.95
2018-09-30T19:50:26.952Z,85.03
2018-09-30T19:52:53.307Z,84.84
2018-09-30T19:55:19.686Z,84.69
2018-09-30T19:57:46.011Z,84.61
2018-09-30T20:00:12.341Z,84.87
2018-09-30T20:02:38.671Z,84.79
2018-09-30T20:05:04.987Z,84.71
2018-09-30T20:07:31.330Z,84.60
2018-09-30T20:09:57.673Z,84.66
2018-09-30T20:12:23.987Z,84.57
2018-09-30T20:14:50.314Z,84.43
2018-09-30T20:17:16.634Z,84.41
2018-09-30T20:19:42.958Z,84.54
2018-09-30T20:22:09.280Z,84.66
2018-09-30T20:24:35.596Z,84.75
2018-09-30T20:27:01.917Z,84.60
2018-09-30T20:29:28.236Z,84.52
2018-09-30T20:31:54.555Z,84.19
2018-09-30T20:34:20.876Z,83.96
2018-09-30T20:36:47.196Z,83.81
2018-09-30T20:39:13.515Z,83.85
2018-09-30T20:41:39.870Z,83.72
2018-09-30T20:44:06.192Z,83.60
2018-09-30T20:46:32.511Z,83.45
2018-09-30T20:48:58.935Z,83.30
2018-09-30T20:51:25.197Z,83.29
2018-09-30T20:53:51.521Z,83.33
2018-09-30T20:56:17.837Z,83.53
2018-09-30T20:58:44.158Z,83.00
2018-09-30T21:01:10.479Z,83.02
2018-09-30T21:03:36.802Z,83.08
2018-09-30T21:06:03.126Z,82.96
2018-09-30T21:08:29.441Z,82.99
2018-09-30T21:10:55.761Z,82.61
2018-09-30T21:13:22.080Z,82.86
2018-09-30T21:15:48.435Z,82.73
2018-09-30T21:18:14.760Z,82.50
2018-09-30T21:20:41.123Z,82.56
2018-09-30T21:23:07.548Z,82.39
2018-09-30T21:25:33.923Z,82.83
2018-09-30T21:28:00.247Z,82.87
2018-09-30T21:30:26.574Z,82.96
2018-09-30T21:32:52.895Z,82.76
2018-09-30T21:35:19.218Z,82.82
2018-09-30T21:37:45.581Z,82.74
2018-09-30T21:40:11.903Z,82.80
2018-09-30T21:42:38.219Z,82.69
2018-09-30T21:45:04.541Z,82.67
2018-09-30T21:47:30.873Z,82.51
2018-09-30T21:49:57.205Z,82.48
2018-09-30T21:52:23.543Z,82.55
2018-09-30T21:54:49.871Z,82.59
2018-09-30T21:57:16.291Z,82.49
2018-09-30T21:59:42.621Z,82.55
2018-09-30T22:02:08.957Z,82.61
2018-09-30T22:04:35.289Z,82.50
2018-09-30T22:07:01.632Z,82.42
2018-09-30T22:09:27.972Z,82.53
2018-09-30T22:11:54.305Z,82.50
2018-09-30T22:14:20.677Z,82.59
2018-09-30T22:16:47.025Z,82.58
2018-09-30T22:19:13.416Z,82.67
2018-09-30T22:21:39.699Z,82.83
2018-09-30T22:24:06.034Z,82.88
2018-09-30T22:26:32.373Z,82.75
2018-09-30T22:28:58.689Z,82.91
2018-09-30T22:31:25.013Z,83.15
2018-09-30T22:33:51.339Z,83.27
2018-09-30T22:36:17.654Z,83.24
2018-09-30T22:38:43.969Z,83.33
2018-09-30T22:41:10.283Z,83.60
2018-09-30T22:43:36.598Z,83.72
2018-09-30T22:46:02.969Z,84.09
2018-09-30T22:48:29.285Z,83.99
2018-09-30T22:50:55.605Z,84.08
2018-09-30T22:53:21.991Z,83.85
2018-09-30T22:55:48.247Z,83.53
2018-09-30T22:58:14.565Z,83.46
2018-09-30T23:00:40.896Z,83.40
2018-09-30T23:03:07.201Z,83.45
2018-09-30T23:05:33.517Z,83.17
2018-09-30T23:07:59.833Z,83.20
2018-09-30T23:10:26.152Z,83.03
2018-09-30T23:12:52.470Z,82.94
2018-09-30T23:15:18.791Z,83.11
2018-09-30T23:17:45.107Z,83.17
2018-09-30T23:20:11.417Z,83.34
2018-09-30T23:22:37.738Z,83.25
2018-09-30T23:25:04.056Z,84.07
2018-09-30T23:27:30.366Z,83.62
2018-09-30T23:29:56.688Z,83.75
2018-09-30T23:32:23.004Z,83.91
2018-09-30T23:34:49.331Z,83.89
2018-09-30T23:37:15.646Z,83.93
2018-09-30T23:39:41.978Z,84.18
2018-09-30T23:42:08.287Z,84.33
2018-09-30T23:44:34.611Z,84.29
2018-09-30T23:47:00.926Z,84.27
2018-09-30T23:49:27.252Z,84.27
2018-09-30T23:51:53.607Z,84.27
2018-09-30T23:54:19.920Z,84.49
2018-09-30T23:56:46.236Z,84.58
2018-09-30T23:59:12.550Z,84.63
